createdAt,value
2023-05-18T00:00:02.999Z,2.73
2023-05-18T00:02:51.858Z,3.07
2023-05-18T00:05:18.943Z,3.33
2023-05-18T00:07:46.524Z,3.00
2023-05-18T00:10:13.377Z,2.70
2023-05-18T00:12:40.573Z,3.13
2023-05-18T00:15:07.850Z,3.40
2023-05-18T00:17:34.887Z,2.60
2023-05-18T00:20:01.814Z,3.10
2023-05-18T00:22:30.024Z,2.77
2023-05-18T00:24:56.763Z,3.50
2023-05-18T00:27:23.778Z,3.77
2023-05-18T00:29:50.771Z,3.90
2023-05-18T00:32:17.866Z,3.87
2023-05-18T00:34:44.594Z,3.33
2023-05-18T00:37:11.770Z,5.33
2023-05-18T00:39:38.566Z,3.40
2023-05-18T00:42:05.822Z,3.17
2023-05-18T00:44:32.689Z,2.97
2023-05-18T00:47:00.250Z,3.37
2023-05-18T00:49:27.527Z,4.90
2023-05-18T00:51:55.390Z,3.23
2023-05-18T00:54:25.860Z,3.23
2023-05-18T00:56:53.478Z,3.73
2023-05-18T00:59:20.330Z,3.63
2023-05-18T01:01:48.627Z,2.87
2023-05-18T01:04:15.452Z,3.57
2023-05-18T01:06:42.803Z,3.00
2023-05-18T01:09:12.107Z,3.27
2023-05-18T01:11:58.084Z,3.87
2023-05-18T01:14:37.712Z,2.73
2023-05-18T01:17:23.448Z,2.80
2023-05-18T01:20:10.820Z,3.43
2023-05-18T01:22:50.671Z,3.33
2023-05-18T01:25:54.834Z,3.10
2023-05-18T01:28:29.536Z,2.90
2023-05-18T01:30:58.283Z,2.50
2023-05-18T01:33:25.688Z,3.20
2023-05-18T01:35:52.713Z,2.90
2023-05-18T01:38:23.242Z,2.93
2023-05-18T01:41:14.805Z,3.10
2023-05-18T01:43:53.485Z,3.40
2023-05-18T01:46:46.624Z,3.47
2023-05-18T01:49:19.494Z,2.60
2023-05-18T01:51:50.158Z,3.43
2023-05-18T01:54:19.536Z,3.93
2023-05-18T01:56:47.733Z,3.17
2023-05-18T01:59:16.797Z,3.17
2023-05-18T02:01:44.920Z,2.93
2023-05-18T02:04:12.293Z,2.83
2023-05-18T02:06:39.299Z,3.00
2023-05-18T02:09:09.130Z,2.83
2023-05-18T02:11:35.949Z,2.43
2023-05-18T02:14:03.108Z,3.40
2023-05-18T02:16:29.985Z,2.80
2023-05-18T02:18:58.208Z,4.47
2023-05-18T02:21:26.301Z,3.87
2023-05-18T02:23:53.370Z,3.30
2023-05-18T02:26:20.958Z,3.77
2023-05-18T02:28:53.027Z,3.13
2023-05-18T02:31:20.435Z,2.93
2023-05-18T02:33:47.648Z,2.83
2023-05-18T02:36:14.565Z,2.73
2023-05-18T02:38:43.850Z,3.13
2023-05-18T02:41:12.077Z,3.00
2023-05-18T02:43:39.422Z,2.80
2023-05-18T02:46:07.765Z,3.03
2023-05-18T02:48:34.945Z,2.90
2023-05-18T02:51:01.804Z,2.70
2023-05-18T02:53:28.915Z,3.13
2023-05-18T02:56:03.932Z,2.50
2023-05-18T02:58:58.567Z,2.60
2023-05-18T03:01:45.777Z,2.80
2023-05-18T03:04:14.038Z,2.50
2023-05-18T03:06:47.686Z,3.63
2023-05-18T03:09:16.134Z,3.13
2023-05-18T03:11:45.102Z,2.97
2023-05-18T03:14:12.682Z,3.17
2023-05-18T03:16:39.625Z,2.97
2023-05-18T03:19:14.229Z,2.67
2023-05-18T03:21:41.615Z,2.33
2023-05-18T03:24:09.396Z,3.60
2023-05-18T03:26:39.780Z,2.73
2023-05-18T03:29:06.900Z,3.33
2023-05-18T03:31:33.876Z,3.33
2023-05-18T03:34:02.744Z,2.80
2023-05-18T03:36:29.609Z,3.13
2023-05-18T03:38:56.794Z,2.73
2023-05-18T03:41:23.960Z,3.00
2023-05-18T03:43:53.080Z,2.97
2023-05-18T03:46:19.872Z,2.87
2023-05-18T03:48:47.100Z,3.20
2023-05-18T03:51:17.415Z,3.50
2023-05-18T03:53:44.638Z,3.47
2023-05-18T03:56:13.294Z,4.90
2023-05-18T03:58:42.402Z,3.83
2023-05-18T04:01:09.534Z,3.13
2023-05-18T04:03:36.724Z,3.30
2023-05-18T04:06:03.746Z,3.47
2023-05-18T04:08:34.328Z,3.60
2023-05-18T04:11:01.621Z,3.00
2023-05-18T04:13:28.948Z,3.67
2023-05-18T04:15:57.932Z,3.10
2023-05-18T04:18:30.097Z,4.03
2023-05-18T04:20:56.967Z,3.70
2023-05-18T04:23:24.502Z,3.43
2023-05-18T04:25:51.620Z,3.40
2023-05-18T04:28:19.210Z,3.97
2023-05-18T04:30:47.610Z,3.67
2023-05-18T04:33:16.238Z,3.33
2023-05-18T04:35:44.721Z,3.97
2023-05-18T04:38:11.983Z,3.73
2023-05-18T04:40:42.639Z,3.40
2023-05-18T04:43:10.663Z,4.17
2023-05-18T04:45:38.608Z,3.73
2023-05-18T04:48:06.746Z,2.97
2023-05-18T04:50:33.714Z,2.87
2023-05-18T04:53:02.261Z,3.20
2023-05-18T04:55:31.182Z,3.17
2023-05-18T04:58:03.465Z,2.83
2023-05-18T05:00:30.871Z,3.67
2023-05-18T05:02:59.484Z,3.07
2023-05-18T05:05:27.376Z,2.97
2023-05-18T05:07:55.866Z,2.80
2023-05-18T05:10:23.074Z,2.27
2023-05-18T05:12:51.022Z,1.80
2023-05-18T05:15:19.092Z,1.53
2023-05-18T05:17:50.198Z,3.33
2023-05-18T05:20:18.102Z,2.57
2023-05-18T05:22:45.708Z,2.30
2023-05-18T05:25:15.813Z,2.20
2023-05-18T05:27:42.957Z,2.10
2023-05-18T05:30:10.454Z,1.90
2023-05-18T05:32:38.538Z,2.33
2023-05-18T05:35:07.289Z,2.83
2023-05-18T05:37:35.833Z,1.50
2023-05-18T05:40:06.298Z,2.83
2023-05-18T05:42:37.757Z,2.10
2023-05-18T05:45:05.210Z,1.87
2023-05-18T05:47:37.658Z,2.40
2023-05-18T05:50:06.423Z,2.47
2023-05-18T05:52:34.436Z,2.17
2023-05-18T05:55:02.027Z,2.00
2023-05-18T05:57:30.688Z,2.07
2023-05-18T05:59:57.619Z,1.67
2023-05-18T06:02:25.829Z,2.03
2023-05-18T06:04:54.092Z,1.80
2023-05-18T06:07:21.229Z,1.40
2023-05-18T06:09:48.723Z,1.80
2023-05-18T06:12:15.895Z,1.90
2023-05-18T06:14:42.743Z,1.83
2023-05-18T06:17:09.954Z,1.65
2023-05-18T06:19:36.825Z,1.70
2023-05-18T06:22:04.122Z,1.58
2023-05-18T06:24:38.514Z,1.25
2023-05-18T06:27:33.420Z,1.23
2023-05-18T06:30:29.719Z,1.10
2023-05-18T06:33:06.498Z,1.63
2023-05-18T06:35:34.185Z,1.30
2023-05-18T06:38:01.226Z,1.40
2023-05-18T06:40:28.033Z,1.35
2023-05-18T06:42:55.054Z,0.98
2023-05-18T06:45:46.008Z,0.98
2023-05-18T06:48:19.028Z,1.25
2023-05-18T06:50:45.895Z,1.33
2023-05-18T06:53:13.590Z,1.35
2023-05-18T06:55:40.375Z,1.20
2023-05-18T06:58:07.449Z,0.90
2023-05-18T07:00:34.495Z,1.13
2023-05-18T07:03:03.650Z,1.23
2023-05-18T07:05:32.100Z,1.00
2023-05-18T07:07:59.345Z,0.70
2023-05-18T07:10:26.306Z,0.90
2023-05-18T07:12:53.321Z,0.80
2023-05-18T07:15:20.160Z,0.80
2023-05-18T07:17:47.303Z,0.88
2023-05-18T07:20:14.134Z,1.13
2023-05-18T07:22:41.285Z,0.98
2023-05-18T07:25:08.442Z,0.82
2023-05-18T07:27:35.517Z,0.80
2023-05-18T07:30:02.224Z,0.90
2023-05-18T07:32:29.521Z,0.60
2023-05-18T07:34:56.371Z,1.00
2023-05-18T07:37:23.435Z,0.63
2023-05-18T07:39:50.356Z,0.77
2023-05-18T07:42:17.389Z,1.15
2023-05-18T07:44:44.215Z,0.88
2023-05-18T07:47:11.729Z,0.70
2023-05-18T07:49:39.632Z,0.93
2023-05-18T07:52:09.842Z,0.80
2023-05-18T07:54:36.581Z,0.70
2023-05-18T07:57:04.283Z,0.75
2023-05-18T07:59:31.265Z,1.10
2023-05-18T08:02:00.002Z,1.08
2023-05-18T08:04:26.813Z,0.98
2023-05-18T08:06:55.377Z,1.08
2023-05-18T08:09:22.233Z,1.15
2023-05-18T08:11:50.997Z,1.27
2023-05-18T08:14:17.821Z,1.10
2023-05-18T08:16:45.304Z,0.95
2023-05-18T08:19:12.228Z,1.45
2023-05-18T08:21:39.275Z,1.23
2023-05-18T08:24:07.064Z,0.82
2023-05-18T08:26:34.317Z,1.10
2023-05-18T08:29:01.132Z,1.40
2023-05-18T08:31:28.400Z,1.10
2023-05-18T08:33:55.585Z,1.00
2023-05-18T08:36:22.590Z,0.77
2023-05-18T08:38:49.390Z,1.02
2023-05-18T08:41:23.410Z,0.90
2023-05-18T08:43:57.939Z,1.05
2023-05-18T08:46:33.305Z,0.82
2023-05-18T08:49:02.083Z,1.45
2023-05-18T08:51:33.610Z,0.60
2023-05-18T08:54:00.886Z,1.23
2023-05-18T08:56:31.573Z,0.80
2023-05-18T08:58:59.115Z,0.90
2023-05-18T09:01:29.882Z,0.93
2023-05-18T09:03:58.088Z,1.25
2023-05-18T09:06:26.232Z,1.30
2023-05-18T09:08:54.270Z,1.10
2023-05-18T09:11:23.060Z,1.00
2023-05-18T09:13:51.151Z,0.77
2023-05-18T09:16:18.907Z,0.50
2023-05-18T09:18:46.027Z,0.90
2023-05-18T09:21:13.249Z,1.10
2023-05-18T09:23:43.384Z,0.70
2023-05-18T09:26:11.438Z,0.60
2023-05-18T09:28:40.170Z,0.88
2023-05-18T09:31:09.179Z,0.63
2023-05-18T09:33:38.138Z,0.93
2023-05-18T09:36:07.437Z,0.70
2023-05-18T09:38:48.160Z,0.90
2023-05-18T09:41:17.504Z,1.05
2023-05-18T09:43:47.590Z,0.93
2023-05-18T09:46:15.045Z,0.70
2023-05-18T09:48:44.374Z,0.93
2023-05-18T09:51:17.641Z,0.60
2023-05-18T09:53:49.570Z,0.60
2023-05-18T09:56:17.910Z,0.93
2023-05-18T09:58:46.070Z,0.90
2023-05-18T10:01:13.371Z,0.82
2023-05-18T10:03:40.574Z,1.17
2023-05-18T10:06:09.627Z,1.13
2023-05-18T10:08:37.628Z,0.60
2023-05-18T10:11:05.601Z,0.70
2023-05-18T10:13:33.719Z,0.70
2023-05-18T10:16:03.460Z,0.80
2023-05-18T10:18:40.735Z,0.90
2023-05-18T10:21:08.303Z,0.65
2023-05-18T10:23:36.801Z,0.77
2023-05-18T10:26:09.905Z,0.70
2023-05-18T10:28:42.697Z,0.70
2023-05-18T10:31:10.254Z,0.70
2023-05-18T10:33:38.246Z,0.85
2023-05-18T10:36:06.349Z,1.10
2023-05-18T10:38:35.769Z,0.60
2023-05-18T10:41:05.667Z,1.00
2023-05-18T10:43:33.546Z,1.23
2023-05-18T10:46:01.640Z,0.70
2023-05-18T10:48:30.210Z,0.90
2023-05-18T10:50:58.167Z,0.70
2023-05-18T10:53:27.135Z,0.98
2023-05-18T10:55:54.643Z,0.75
2023-05-18T10:58:30.542Z,0.82
2023-05-18T11:01:01.230Z,0.80
2023-05-18T11:03:28.633Z,0.82
2023-05-18T11:06:06.735Z,0.93
2023-05-18T11:08:33.804Z,0.80
2023-05-18T11:11:03.571Z,0.77
2023-05-18T11:13:34.762Z,0.75
2023-05-18T11:16:05.042Z,0.75
2023-05-18T11:18:39.952Z,1.08
2023-05-18T11:21:35.835Z,0.85
2023-05-18T11:24:23.324Z,0.90
2023-05-18T11:26:56.077Z,0.85
2023-05-18T11:29:35.101Z,0.80
2023-05-18T11:32:02.862Z,0.90
2023-05-18T11:34:40.974Z,1.13
2023-05-18T11:37:10.623Z,0.82
2023-05-18T11:39:44.949Z,0.90
2023-05-18T11:42:20.438Z,0.93
2023-05-18T11:44:56.746Z,0.80
2023-05-18T11:47:31.498Z,1.20
2023-05-18T11:49:59.080Z,0.98
2023-05-18T11:52:26.496Z,0.90
2023-05-18T11:54:55.190Z,0.82
2023-05-18T11:57:26.755Z,0.75
2023-05-18T11:59:58.138Z,2.22
2023-05-18T12:02:27.578Z,1.00
2023-05-18T12:04:56.965Z,1.10
2023-05-18T12:07:28.354Z,0.73
2023-05-18T12:10:00.480Z,0.82
2023-05-18T12:12:28.372Z,1.50
2023-05-18T12:14:59.827Z,1.10
2023-05-18T12:17:39.105Z,0.90
2023-05-18T12:20:07.925Z,1.48
2023-05-18T12:22:34.982Z,1.15
2023-05-18T12:25:01.895Z,1.02
2023-05-18T12:27:29.279Z,0.80
2023-05-18T12:29:56.264Z,0.85
2023-05-18T12:32:23.542Z,0.85
2023-05-18T12:34:51.489Z,1.05
2023-05-18T12:37:20.094Z,1.15
2023-05-18T12:39:52.532Z,1.90
2023-05-18T12:42:19.830Z,1.27
2023-05-18T12:44:46.752Z,1.20
2023-05-18T12:47:14.638Z,0.90
2023-05-18T12:49:43.552Z,1.10
2023-05-18T12:52:16.647Z,1.08
2023-05-18T12:54:55.765Z,1.00
2023-05-18T12:57:25.560Z,1.42
2023-05-18T12:59:55.505Z,0.90
2023-05-18T13:02:28.633Z,0.90
2023-05-18T13:05:09.775Z,1.02
2023-05-18T13:07:44.069Z,1.50
2023-05-18T13:10:19.763Z,1.10
2023-05-18T13:12:51.033Z,0.90
2023-05-18T13:15:20.353Z,1.20
2023-05-18T13:18:02.721Z,1.17
2023-05-18T13:20:33.318Z,0.77
2023-05-18T13:23:07.904Z,1.17
2023-05-18T13:25:34.797Z,0.90
2023-05-18T13:28:05.540Z,0.73
2023-05-18T13:30:33.054Z,1.10
2023-05-18T13:33:00.401Z,1.10
2023-05-18T13:35:27.517Z,1.25
2023-05-18T13:37:54.818Z,0.75
2023-05-18T13:40:23.898Z,1.02
2023-05-18T13:42:51.557Z,1.00
2023-05-18T13:45:18.930Z,1.33
2023-05-18T13:47:50.557Z,0.80
2023-05-18T13:50:18.210Z,0.90
2023-05-18T13:52:46.390Z,0.82
2023-05-18T13:55:13.769Z,0.80
2023-05-18T13:57:41.781Z,0.73
2023-05-18T14:00:13.517Z,0.90
2023-05-18T14:02:41.388Z,0.93
2023-05-18T14:05:09.617Z,0.77
2023-05-18T14:07:41.763Z,0.98
2023-05-18T14:10:10.966Z,1.17
2023-05-18T14:12:38.895Z,0.80
2023-05-18T14:15:06.195Z,1.20
2023-05-18T14:17:34.259Z,0.95
2023-05-18T14:20:01.515Z,0.73
2023-05-18T14:22:30.571Z,1.10
2023-05-18T14:24:57.703Z,1.13
2023-05-18T14:27:24.750Z,1.15
2023-05-18T14:29:51.477Z,1.33
2023-05-18T14:32:20.952Z,0.77
2023-05-18T14:34:51.602Z,1.05
2023-05-18T14:37:19.156Z,1.10
2023-05-18T14:39:46.370Z,0.80
2023-05-18T14:42:13.503Z,0.70
2023-05-18T14:44:40.328Z,1.30
2023-05-18T14:47:07.548Z,1.00
2023-05-18T14:49:34.563Z,0.75
2023-05-18T14:52:01.602Z,0.95
2023-05-18T14:54:28.416Z,1.05
2023-05-18T14:56:55.532Z,0.70
2023-05-18T14:59:23.584Z,0.55
2023-05-18T15:01:50.835Z,0.93
2023-05-18T15:04:17.867Z,1.55
2023-05-18T15:06:44.947Z,0.82
2023-05-18T15:09:12.175Z,1.27
2023-05-18T15:11:39.261Z,0.90
2023-05-18T15:14:06.046Z,1.05
2023-05-18T15:16:33.147Z,1.58
2023-05-18T15:19:00.068Z,0.90
2023-05-18T15:21:27.136Z,1.05
2023-05-18T15:23:53.867Z,1.25
2023-05-18T15:26:21.412Z,1.67
2023-05-18T15:28:49.300Z,1.48
2023-05-18T15:31:16.371Z,0.85
2023-05-18T15:33:43.795Z,1.23
2023-05-18T15:36:11.150Z,1.60
2023-05-18T15:38:37.935Z,2.90
2023-05-18T15:41:05.120Z,2.97
2023-05-18T15:43:31.890Z,2.20
2023-05-18T15:45:59.122Z,2.40
2023-05-18T15:48:26.037Z,1.60
2023-05-18T15:50:53.089Z,1.00
2023-05-18T15:53:19.863Z,0.90
2023-05-18T15:55:49.170Z,1.00
2023-05-18T15:58:16.385Z,0.80
2023-05-18T16:00:43.459Z,1.02
2023-05-18T16:03:10.326Z,1.10
2023-05-18T16:05:37.477Z,0.80
2023-05-18T16:08:04.418Z,0.85
2023-05-18T16:10:31.656Z,1.27
2023-05-18T16:13:05.775Z,0.90
2023-05-18T16:15:34.872Z,0.60
2023-05-18T16:18:02.231Z,0.60
2023-05-18T16:20:30.129Z,1.35
2023-05-18T16:22:57.625Z,5.07
2023-05-18T16:25:24.873Z,3.17
2023-05-18T16:27:51.953Z,2.42
2023-05-18T16:30:19.012Z,0.98
2023-05-18T16:32:45.965Z,1.02
2023-05-18T16:35:13.059Z,1.10
2023-05-18T16:37:39.911Z,1.20
2023-05-18T16:40:08.281Z,1.23
2023-05-18T16:42:35.621Z,0.95
2023-05-18T16:45:03.298Z,1.38
2023-05-18T16:47:32.523Z,1.13
2023-05-18T16:50:00.474Z,1.13
2023-05-18T16:52:27.656Z,0.60
2023-05-18T16:54:54.715Z,1.10
2023-05-18T16:57:22.132Z,1.10
2023-05-18T16:59:49.789Z,0.90
2023-05-18T17:02:17.867Z,1.20
2023-05-18T17:04:45.913Z,1.50
2023-05-18T17:07:13.289Z,0.70
2023-05-18T17:09:41.684Z,0.93
2023-05-18T17:12:10.260Z,1.02
2023-05-18T17:14:37.724Z,1.02
2023-05-18T17:17:05.432Z,1.33
2023-05-18T17:19:34.686Z,1.02
2023-05-18T17:22:01.920Z,1.20
2023-05-18T17:24:28.925Z,1.63
2023-05-18T17:26:56.202Z,5.57
2023-05-18T17:29:23.670Z,1.15
2023-05-18T17:31:50.650Z,1.10
2023-05-18T17:34:17.832Z,1.30
2023-05-18T17:36:45.544Z,1.00
2023-05-18T17:39:13.340Z,1.10
2023-05-18T17:41:40.128Z,1.13
2023-05-18T17:44:07.196Z,0.98
2023-05-18T17:46:34.165Z,1.10
2023-05-18T17:49:03.765Z,1.00
2023-05-18T17:51:31.551Z,0.98
2023-05-18T17:53:58.685Z,1.08
2023-05-18T17:56:27.432Z,0.70
2023-05-18T17:58:54.476Z,1.10
2023-05-18T18:01:21.467Z,1.02
2023-05-18T18:03:48.848Z,0.85
2023-05-18T18:06:17.698Z,1.05
2023-05-18T18:08:45.032Z,0.75
2023-05-18T18:11:12.044Z,1.27
2023-05-18T18:13:39.106Z,1.40
2023-05-18T18:16:06.461Z,1.10
2023-05-18T18:18:36.657Z,1.00
2023-05-18T18:21:04.057Z,1.05
2023-05-18T18:23:31.030Z,1.20
2023-05-18T18:25:58.705Z,1.38
2023-05-18T18:28:26.180Z,1.17
2023-05-18T18:30:53.124Z,1.33
2023-05-18T18:33:20.926Z,1.23
2023-05-18T18:35:48.751Z,0.90
2023-05-18T18:38:15.787Z,1.25
2023-05-18T18:40:42.653Z,1.63
2023-05-18T18:43:09.840Z,1.17
2023-05-18T18:45:36.662Z,1.20
2023-05-18T18:48:04.125Z,1.33
2023-05-18T18:50:31.234Z,1.10
2023-05-18T18:52:58.417Z,1.60
2023-05-18T18:55:25.655Z,1.77
2023-05-18T18:57:53.131Z,1.70
2023-05-18T19:00:21.220Z,1.27
2023-05-18T19:02:48.579Z,1.23
2023-05-18T19:05:21.470Z,1.52
2023-05-18T19:07:49.913Z,1.60
2023-05-18T19:10:16.760Z,1.30
2023-05-18T19:12:43.815Z,2.15
2023-05-18T19:15:13.688Z,1.90
2023-05-18T19:17:41.555Z,1.77
2023-05-18T19:20:09.116Z,1.20
2023-05-18T19:22:36.361Z,1.73
2023-05-18T19:25:03.483Z,1.60
2023-05-18T19:27:30.785Z,2.75
2023-05-18T19:29:58.048Z,1.55
2023-05-18T19:32:26.320Z,1.37
2023-05-18T19:34:53.172Z,1.50
2023-05-18T19:37:20.333Z,1.93
2023-05-18T19:39:47.176Z,1.37
2023-05-18T19:42:14.215Z,2.00
2023-05-18T19:44:41.093Z,2.58
2023-05-18T19:47:08.299Z,1.90
2023-05-18T19:49:35.084Z,1.45
2023-05-18T19:52:07.902Z,2.50
2023-05-18T19:54:38.367Z,2.00
2023-05-18T19:57:05.652Z,2.50
2023-05-18T19:59:32.606Z,1.33
2023-05-18T20:01:59.768Z,1.73
2023-05-18T20:04:28.493Z,1.80
2023-05-18T20:06:59.708Z,1.70
2023-05-18T20:09:27.745Z,1.83
2023-05-18T20:11:56.234Z,1.50
2023-05-18T20:14:23.777Z,2.53
2023-05-18T20:16:52.281Z,1.45
2023-05-18T20:19:19.353Z,2.00
2023-05-18T20:21:49.886Z,1.90
2023-05-18T20:24:16.828Z,1.95
2023-05-18T20:26:43.880Z,2.50
2023-05-18T20:29:11.000Z,1.73
2023-05-18T20:31:38.510Z,1.60
2023-05-18T20:34:06.925Z,1.20
2023-05-18T20:36:35.845Z,1.50
2023-05-18T20:39:03.935Z,1.80
2023-05-18T20:41:31.130Z,1.50
2023-05-18T20:44:02.093Z,1.25
2023-05-18T20:46:31.121Z,2.30
2023-05-18T20:48:58.092Z,1.40
2023-05-18T20:51:25.357Z,1.70
2023-05-18T20:53:52.164Z,1.40
2023-05-18T20:56:19.292Z,1.50
2023-05-18T20:58:48.559Z,1.80
2023-05-18T21:01:21.025Z,2.87
2023-05-18T21:03:48.438Z,2.70
2023-05-18T21:06:15.877Z,1.73
2023-05-18T21:08:45.536Z,1.80
2023-05-18T21:11:12.633Z,2.87
2023-05-18T21:13:39.442Z,1.33
2023-05-18T21:16:08.440Z,1.40
2023-05-18T21:18:35.966Z,1.50
2023-05-18T21:21:03.874Z,1.53
2023-05-18T21:23:30.782Z,1.90
2023-05-18T21:25:57.931Z,1.57
2023-05-18T21:28:25.061Z,1.50
2023-05-18T21:30:53.927Z,1.20
2023-05-18T21:33:21.798Z,1.20
2023-05-18T21:35:48.968Z,1.40
2023-05-18T21:38:17.308Z,1.40
2023-05-18T21:40:44.462Z,1.07
2023-05-18T21:43:11.306Z,0.93
2023-05-18T21:45:38.864Z,1.40
2023-05-18T21:48:06.192Z,1.73
2023-05-18T21:50:34.822Z,1.20
2023-05-18T21:53:05.553Z,1.53
2023-05-18T21:55:32.858Z,2.10
2023-05-18T21:57:59.944Z,1.77
2023-05-18T22:00:27.255Z,1.40
2023-05-18T22:02:54.233Z,1.27
2023-05-18T22:05:21.504Z,1.63
2023-05-18T22:07:49.014Z,1.30
2023-05-18T22:10:17.870Z,1.20
2023-05-18T22:12:45.032Z,1.33
2023-05-18T22:15:12.550Z,1.50
2023-05-18T22:17:39.985Z,1.13
2023-05-18T22:20:11.299Z,1.37
2023-05-18T22:22:40.408Z,1.63
2023-05-18T22:25:08.024Z,1.67
2023-05-18T22:27:36.846Z,1.27
2023-05-18T22:30:08.349Z,1.40
2023-05-18T22:32:35.410Z,1.70
2023-05-18T22:35:02.871Z,1.60
2023-05-18T22:37:29.779Z,1.17
2023-05-18T22:39:57.069Z,1.17
2023-05-18T22:42:24.197Z,1.30
2023-05-18T22:44:51.509Z,1.30
2023-05-18T22:47:21.379Z,1.47
2023-05-18T22:49:49.303Z,1.30
2023-05-18T22:52:18.532Z,1.17
2023-05-18T22:54:46.283Z,1.27
2023-05-18T22:57:13.556Z,1.70
2023-05-18T22:59:40.736Z,1.30
2023-05-18T23:02:07.679Z,2.30
2023-05-18T23:04:35.303Z,1.90
2023-05-18T23:07:04.024Z,1.50
2023-05-18T23:09:31.326Z,1.87
2023-05-18T23:11:59.665Z,1.30
2023-05-18T23:14:32.484Z,1.83
2023-05-18T23:17:00.199Z,1.23
2023-05-18T23:19:28.878Z,1.47
2023-05-18T23:21:56.506Z,1.47
2023-05-18T23:24:23.824Z,1.50
2023-05-18T23:26:50.815Z,1.47
2023-05-18T23:29:18.076Z,1.80
2023-05-18T23:31:44.896Z,1.50
2023-05-18T23:34:12.329Z,1.37
2023-05-18T23:36:42.716Z,2.03
2023-05-18T23:39:10.380Z,1.40
2023-05-18T23:41:37.932Z,1.50
2023-05-18T23:44:06.498Z,1.53
2023-05-18T23:46:34.203Z,1.60
2023-05-18T23:49:01.500Z,1.63
2023-05-18T23:51:31.984Z,1.67
2023-05-18T23:54:00.270Z,1.73
2023-05-18T23:56:27.391Z,2.00
2023-05-18T23:58:55.045Z,1.47
